Archival Weather

Rochelle Muni/Koritz Fld

Rochelle, Illinois (KRPJ)

Report from: Sunday, February 5, 2023 5:35 AM CST
Current time: Wednesday, May 29, 2024 2:37 AM CDT

Current weather – Weather history – Daily summaries
Weather forecast

Temperature-2.5°C (27.5°F)
Wind chill-6.1°C (21.1°F)
Dew point-3.2°C (26.2°F)
Winds 5 kts (2.6 m/s, 5.8 mph) South-Southwest (200°)
Visibility10 mi. (16.1 km)
Clouds Sky clear
Altimeter29.85 in.Hg (1011 mB)
Relative humidity95 %
Density altitude-1,993 ft. (-608 m)
Remarks Fully automated report
Automated weather observing station with precipitation discriminator
Lightning detection system not operating
Flight conditions Visual Meteorological Conditions
Raw dataKRPJ 051135Z AUTO 20005KT 10SM CLR M02/M03 A2985 RMK AO2 T10251032 TSNO
An error has occurred. This application may no longer respond until reloaded. Reload 🗙